sensor_id;sensor_type;location;lat;lon;timestamp;P1;durP1;ratioP1;P2;durP2;ratioP2
291;SDS011;23311;48.776;9.162;2023-05-29T00:01:34;6.60;;;4.50;;
291;SDS011;23311;48.776;9.162;2023-05-29T00:04:04;8.40;;;4.60;;
291;SDS011;23311;48.776;9.162;2023-05-29T00:06:32;7.73;;;5.47;;
291;SDS011;23311;48.776;9.162;2023-05-29T00:09:02;7.37;;;5.20;;
291;SDS011;23311;48.776;9.162;2023-05-29T00:11:30;7.10;;;5.53;;
291;SDS011;23311;48.776;9.162;2023-05-29T00:13:58;6.10;;;4.87;;
291;SDS011;23311;48.776;9.162;2023-05-29T00:16:28;6.20;;;4.90;;
291;SDS011;23311;48.776;9.162;2023-05-29T00:18:56;10.00;;;5.73;;
291;SDS011;23311;48.776;9.162;2023-05-29T00:21:24;8.80;;;4.90;;
291;SDS011;23311;48.776;9.162;2023-05-29T00:23:52;6.70;;;5.00;;
291;SDS011;23311;48.776;9.162;2023-05-29T00:26:20;7.30;;;4.67;;
291;SDS011;23311;48.776;9.162;2023-05-29T00:28:48;10.47;;;5.77;;
291;SDS011;23311;48.776;9.162;2023-05-29T00:31:17;6.77;;;5.20;;
291;SDS011;23311;48.776;9.162;2023-05-29T00:33:46;5.60;;;4.97;;
291;SDS011;23311;48.776;9.162;2023-05-29T00:36:14;8.10;;;4.50;;
291;SDS011;23311;48.776;9.162;2023-05-29T00:38:42;8.57;;;5.07;;
291;SDS011;23311;48.776;9.162;2023-05-29T00:41:13;8.43;;;5.40;;
291;SDS011;23311;48.776;9.162;2023-05-29T00:43:42;11.37;;;4.83;;
291;SDS011;23311;48.776;9.162;2023-05-29T00:46:17;6.73;;;4.63;;
291;SDS011;23311;48.776;9.162;2023-05-29T00:48:48;8.07;;;4.47;;
291;SDS011;23311;48.776;9.162;2023-05-29T00:51:17;5.17;;;4.33;;
291;SDS011;23311;48.776;9.162;2023-05-29T00:53:45;7.20;;;4.30;;
291;SDS011;23311;48.776;9.162;2023-05-29T00:56:14;6.57;;;5.23;;
291;SDS011;23311;48.776;9.162;2023-05-29T00:58:42;5.73;;;4.40;;
291;SDS011;23311;48.776;9.162;2023-05-29T01:01:11;8.17;;;5.30;;
291;SDS011;23311;48.776;9.162;2023-05-29T01:03:39;4.33;;;4.00;;
291;SDS011;23311;48.776;9.162;2023-05-29T01:06:10;5.03;;;4.10;;
291;SDS011;23311;48.776;9.162;2023-05-29T01:08:38;6.97;;;4.60;;
291;SDS011;23311;48.776;9.162;2023-05-29T01:11:08;12.00;;;4.90;;
291;SDS011;23311;48.776;9.162;2023-05-29T01:13:46;6.90;;;4.40;;
291;SDS011;23311;48.776;9.162;2023-05-29T01:16:20;5.87;;;3.93;;
291;SDS011;23311;48.776;9.162;2023-05-29T01:18:55;7.77;;;4.50;;
291;SDS011;23311;48.776;9.162;2023-05-29T01:21:35;6.13;;;4.57;;
291;SDS011;23311;48.776;9.162;2023-05-29T01:24:23;6.43;;;4.40;;
291;SDS011;23311;48.776;9.162;2023-05-29T01:27:01;6.77;;;4.50;;
291;SDS011;23311;48.776;9.162;2023-05-29T01:29:33;7.23;;;4.67;;
291;SDS011;23311;48.776;9.162;2023-05-29T01:32:02;7.50;;;5.17;;
291;SDS011;23311;48.776;9.162;2023-05-29T01:34:32;9.73;;;4.60;;
291;SDS011;23311;48.776;9.162;2023-05-29T01:37:00;7.57;;;5.07;;
291;SDS011;23311;48.776;9.162;2023-05-29T01:39:28;5.20;;;4.20;;
291;SDS011;23311;48.776;9.162;2023-05-29T01:41:57;6.93;;;4.10;;
291;SDS011;23311;48.776;9.162;2023-05-29T01:44:28;6.20;;;4.37;;
291;SDS011;23311;48.776;9.162;2023-05-29T01:46:57;4.60;;;4.00;;
291;SDS011;23311;48.776;9.162;2023-05-29T01:49:26;4.97;;;4.43;;
291;SDS011;23311;48.776;9.162;2023-05-29T01:51:56;6.57;;;4.77;;
291;SDS011;23311;48.776;9.162;2023-05-29T01:54:24;5.90;;;4.27;;
291;SDS011;23311;48.776;9.162;2023-05-29T01:56:52;5.90;;;4.67;;
291;SDS011;23311;48.776;9.162;2023-05-29T01:59:20;6.80;;;5.00;;
291;SDS011;23311;48.776;9.162;2023-05-29T02:01:51;7.60;;;4.83;;
291;SDS011;23311;48.776;9.162;2023-05-29T02:04:19;7.13;;;5.07;;
291;SDS011;23311;48.776;9.162;2023-05-29T02:06:47;6.70;;;5.40;;
291;SDS011;23311;48.776;9.162;2023-05-29T02:09:16;7.33;;;4.77;;
291;SDS011;23311;48.776;9.162;2023-05-29T02:11:44;5.07;;;4.60;;
291;SDS011;23311;48.776;9.162;2023-05-29T02:14:12;5.23;;;4.43;;
291;SDS011;23311;48.776;9.162;2023-05-29T02:16:40;5.63;;;4.53;;
291;SDS011;23311;48.776;9.162;2023-05-29T02:19:11;7.67;;;4.93;;
291;SDS011;23311;48.776;9.162;2023-05-29T02:21:40;7.40;;;4.60;;
291;SDS011;23311;48.776;9.162;2023-05-29T02:24:08;7.43;;;5.00;;
291;SDS011;23311;48.776;9.162;2023-05-29T02:26:36;5.93;;;4.67;;
291;SDS011;23311;48.776;9.162;2023-05-29T02:29:04;6.37;;;5.07;;
291;SDS011;23311;48.776;9.162;2023-05-29T02:31:33;7.57;;;4.20;;
291;SDS011;23311;48.776;9.162;2023-05-29T02:34:01;6.70;;;4.60;;
291;SDS011;23311;48.776;9.162;2023-05-29T02:36:31;6.93;;;4.90;;
291;SDS011;23311;48.776;9.162;2023-05-29T02:38:59;6.20;;;4.40;;
291;SDS011;23311;48.776;9.162;2023-05-29T02:41:27;5.67;;;4.17;;
291;SDS011;23311;48.776;9.162;2023-05-29T02:43:55;6.20;;;4.93;;
291;SDS011;23311;48.776;9.162;2023-05-29T02:46:23;6.93;;;4.40;;
291;SDS011;23311;48.776;9.162;2023-05-29T02:48:51;7.83;;;4.90;;
291;SDS011;23311;48.776;9.162;2023-05-29T02:51:19;6.70;;;5.03;;
291;SDS011;23311;48.776;9.162;2023-05-29T02:53:48;6.43;;;4.60;;
291;SDS011;23311;48.776;9.162;2023-05-29T02:56:17;7.57;;;5.30;;
291;SDS011;23311;48.776;9.162;2023-05-29T02:58:45;6.63;;;4.70;;
291;SDS011;23311;48.776;9.162;2023-05-29T03:01:13;7.10;;;4.70;;
291;SDS011;23311;48.776;9.162;2023-05-29T03:03:41;7.00;;;5.57;;
291;SDS011;23311;48.776;9.162;2023-05-29T03:06:10;5.90;;;4.57;;
291;SDS011;23311;48.776;9.162;2023-05-29T03:08:38;4.53;;;4.00;;
291;SDS011;23311;48.776;9.162;2023-05-29T03:11:08;8.13;;;4.40;;
291;SDS011;23311;48.776;9.162;2023-05-29T03:13:37;5.03;;;4.00;;
291;SDS011;23311;48.776;9.162;2023-05-29T03:16:05;8.57;;;4.53;;
291;SDS011;23311;48.776;9.162;2023-05-29T03:18:34;6.60;;;4.97;;
291;SDS011;23311;48.776;9.162;2023-05-29T03:21:02;5.87;;;4.73;;
291;SDS011;23311;48.776;9.162;2023-05-29T03:23:30;5.23;;;4.60;;
291;SDS011;23311;48.776;9.162;2023-05-29T03:25:58;5.30;;;4.43;;
291;SDS011;23311;48.776;9.162;2023-05-29T03:28:28;6.37;;;4.80;;
291;SDS011;23311;48.776;9.162;2023-05-29T03:30:56;8.80;;;5.10;;
291;SDS011;23311;48.776;9.162;2023-05-29T03:33:24;7.80;;;4.47;;
291;SDS011;23311;48.776;9.162;2023-05-29T03:35:52;6.27;;;3.67;;
291;SDS011;23311;48.776;9.162;2023-05-29T03:38:21;6.63;;;5.13;;
291;SDS011;23311;48.776;9.162;2023-05-29T03:40:50;6.80;;;4.23;;
291;SDS011;23311;48.776;9.162;2023-05-29T03:43:18;9.00;;;4.17;;
291;SDS011;23311;48.776;9.162;2023-05-29T03:45:47;10.83;;;5.03;;
291;SDS011;23311;48.776;9.162;2023-05-29T03:48:15;7.30;;;5.10;;
291;SDS011;23311;48.776;9.162;2023-05-29T03:50:44;5.27;;;4.40;;
291;SDS011;23311;48.776;9.162;2023-05-29T03:53:13;5.80;;;4.10;;
291;SDS011;23311;48.776;9.162;2023-05-29T03:55:41;7.00;;;4.80;;
291;SDS011;23311;48.776;9.162;2023-05-29T03:58:09;6.27;;;3.97;;
291;SDS011;23311;48.776;9.162;2023-05-29T04:00:38;6.20;;;4.43;;
291;SDS011;23311;48.776;9.162;2023-05-29T04:03:08;5.60;;;4.37;;
291;SDS011;23311;48.776;9.162;2023-05-29T04:05:37;6.37;;;4.10;;
291;SDS011;23311;48.776;9.162;2023-05-29T04:08:06;5.20;;;3.83;;
291;SDS011;23311;48.776;9.162;2023-05-29T04:10:39;5.80;;;4.10;;
291;SDS011;23311;48.776;9.162;2023-05-29T04:13:08;5.03;;;4.50;;
291;SDS011;23311;48.776;9.162;2023-05-29T04:15:36;6.00;;;4.40;;
291;SDS011;23311;48.776;9.162;2023-05-29T04:18:04;8.20;;;4.77;;
291;SDS011;23311;48.776;9.162;2023-05-29T04:20:34;6.87;;;4.47;;
291;SDS011;23311;48.776;9.162;2023-05-29T04:23:02;4.77;;;3.87;;
291;SDS011;23311;48.776;9.162;2023-05-29T04:25:30;7.30;;;4.70;;
291;SDS011;23311;48.776;9.162;2023-05-29T04:27:58;5.93;;;4.73;;
291;SDS011;23311;48.776;9.162;2023-05-29T04:30:28;6.97;;;4.53;;
291;SDS011;23311;48.776;9.162;2023-05-29T04:32:58;7.70;;;4.70;;
291;SDS011;23311;48.776;9.162;2023-05-29T04:35:26;5.93;;;4.80;;
291;SDS011;23311;48.776;9.162;2023-05-29T04:37:57;5.07;;;4.30;;
291;SDS011;23311;48.776;9.162;2023-05-29T04:40:25;8.13;;;4.20;;
291;SDS011;23311;48.776;9.162;2023-05-29T04:42:53;6.73;;;4.63;;
291;SDS011;23311;48.776;9.162;2023-05-29T04:45:22;7.87;;;5.00;;
291;SDS011;23311;48.776;9.162;2023-05-29T04:47:50;6.43;;;4.10;;
291;SDS011;23311;48.776;9.162;2023-05-29T04:50:20;5.73;;;4.40;;
291;SDS011;23311;48.776;9.162;2023-05-29T04:52:50;4.60;;;4.27;;
291;SDS011;23311;48.776;9.162;2023-05-29T04:55:19;5.60;;;4.67;;
291;SDS011;23311;48.776;9.162;2023-05-29T04:57:48;4.77;;;4.40;;
291;SDS011;23311;48.776;9.162;2023-05-29T05:00:16;8.17;;;5.17;;
291;SDS011;23311;48.776;9.162;2023-05-29T05:02:44;6.87;;;4.93;;
291;SDS011;23311;48.776;9.162;2023-05-29T05:05:13;7.07;;;4.90;;
291;SDS011;23311;48.776;9.162;2023-05-29T05:07:41;8.00;;;5.10;;
291;SDS011;23311;48.776;9.162;2023-05-29T05:10:09;6.07;;;5.33;;
291;SDS011;23311;48.776;9.162;2023-05-29T05:12:39;7.77;;;5.20;;
291;SDS011;23311;48.776;9.162;2023-05-29T05:15:08;4.57;;;4.30;;
291;SDS011;23311;48.776;9.162;2023-05-29T05:17:37;6.77;;;4.60;;
291;SDS011;23311;48.776;9.162;2023-05-29T05:20:05;6.47;;;4.90;;
291;SDS011;23311;48.776;9.162;2023-05-29T05:22:35;5.17;;;4.13;;
291;SDS011;23311;48.776;9.162;2023-05-29T05:25:03;6.50;;;4.67;;
291;SDS011;23311;48.776;9.162;2023-05-29T05:27:33;7.10;;;4.70;;
291;SDS011;23311;48.776;9.162;2023-05-29T05:30:02;5.30;;;4.40;;
291;SDS011;23311;48.776;9.162;2023-05-29T05:32:31;6.10;;;4.70;;
291;SDS011;23311;48.776;9.162;2023-05-29T05:35:01;8.67;;;4.73;;
291;SDS011;23311;48.776;9.162;2023-05-29T05:37:29;7.80;;;4.80;;
291;SDS011;23311;48.776;9.162;2023-05-29T05:39:58;5.87;;;4.37;;
291;SDS011;23311;48.776;9.162;2023-05-29T05:42:27;5.63;;;4.27;;
291;SDS011;23311;48.776;9.162;2023-05-29T05:44:55;4.47;;;4.17;;
291;SDS011;23311;48.776;9.162;2023-05-29T05:47:24;5.43;;;4.00;;
291;SDS011;23311;48.776;9.162;2023-05-29T05:49:54;6.50;;;4.00;;
291;SDS011;23311;48.776;9.162;2023-05-29T05:52:23;6.50;;;3.87;;
291;SDS011;23311;48.776;9.162;2023-05-29T05:54:51;5.97;;;4.70;;
291;SDS011;23311;48.776;9.162;2023-05-29T05:57:19;6.47;;;4.00;;
291;SDS011;23311;48.776;9.162;2023-05-29T05:59:47;6.53;;;4.30;;
291;SDS011;23311;48.776;9.162;2023-05-29T06:02:15;5.53;;;4.03;;
291;SDS011;23311;48.776;9.162;2023-05-29T06:04:45;5.03;;;3.83;;
291;SDS011;23311;48.776;9.162;2023-05-29T06:07:13;6.73;;;5.43;;
291;SDS011;23311;48.776;9.162;2023-05-29T06:09:41;4.97;;;4.70;;
291;SDS011;23311;48.776;9.162;2023-05-29T06:12:09;6.07;;;4.30;;
291;SDS011;23311;48.776;9.162;2023-05-29T06:14:38;6.10;;;4.40;;
291;SDS011;23311;48.776;9.162;2023-05-29T06:17:06;5.60;;;4.20;;
291;SDS011;23311;48.776;9.162;2023-05-29T06:19:34;6.70;;;5.30;;
291;SDS011;23311;48.776;9.162;2023-05-29T06:22:04;6.63;;;4.63;;
291;SDS011;23311;48.776;9.162;2023-05-29T06:24:33;5.63;;;4.20;;
291;SDS011;23311;48.776;9.162;2023-05-29T06:27:00;6.10;;;4.07;;
291;SDS011;23311;48.776;9.162;2023-05-29T06:29:29;5.37;;;4.40;;
291;SDS011;23311;48.776;9.162;2023-05-29T06:31:57;4.70;;;3.93;;
291;SDS011;23311;48.776;9.162;2023-05-29T06:34:26;5.87;;;4.83;;
291;SDS011;23311;48.776;9.162;2023-05-29T06:36:54;4.93;;;4.13;;
291;SDS011;23311;48.776;9.162;2023-05-29T06:39:23;5.30;;;4.97;;
291;SDS011;23311;48.776;9.162;2023-05-29T06:41:52;4.20;;;3.97;;
291;SDS011;23311;48.776;9.162;2023-05-29T06:44:20;5.70;;;4.73;;
291;SDS011;23311;48.776;9.162;2023-05-29T06:46:48;5.67;;;4.73;;
291;SDS011;23311;48.776;9.162;2023-05-29T06:49:16;5.20;;;4.60;;
291;SDS011;23311;48.776;9.162;2023-05-29T06:51:44;6.80;;;4.80;;
291;SDS011;23311;48.776;9.162;2023-05-29T06:54:12;5.77;;;4.00;;
291;SDS011;23311;48.776;9.162;2023-05-29T06:56:41;4.83;;;4.43;;
291;SDS011;23311;48.776;9.162;2023-05-29T06:59:13;4.83;;;3.80;;
291;SDS011;23311;48.776;9.162;2023-05-29T07:01:41;7.13;;;4.50;;
291;SDS011;23311;48.776;9.162;2023-05-29T07:04:10;7.40;;;5.20;;
291;SDS011;23311;48.776;9.162;2023-05-29T07:06:39;6.10;;;4.57;;
291;SDS011;23311;48.776;9.162;2023-05-29T07:09:07;5.00;;;4.00;;
291;SDS011;23311;48.776;9.162;2023-05-29T07:11:35;7.53;;;5.40;;
291;SDS011;23311;48.776;9.162;2023-05-29T07:14:05;6.03;;;4.50;;
291;SDS011;23311;48.776;9.162;2023-05-29T07:16:33;6.17;;;4.80;;
291;SDS011;23311;48.776;9.162;2023-05-29T07:19:01;5.60;;;4.90;;
291;SDS011;23311;48.776;9.162;2023-05-29T07:21:30;5.40;;;4.73;;
291;SDS011;23311;48.776;9.162;2023-05-29T07:23:59;4.93;;;4.40;;
291;SDS011;23311;48.776;9.162;2023-05-29T07:26:27;4.83;;;4.00;;
291;SDS011;23311;48.776;9.162;2023-05-29T07:28:57;6.03;;;4.53;;
291;SDS011;23311;48.776;9.162;2023-05-29T07:31:26;6.20;;;4.80;;
291;SDS011;23311;48.776;9.162;2023-05-29T07:33:54;5.53;;;4.60;;
291;SDS011;23311;48.776;9.162;2023-05-29T07:36:22;5.30;;;4.60;;
291;SDS011;23311;48.776;9.162;2023-05-29T07:38:50;5.60;;;5.00;;
291;SDS011;23311;48.776;9.162;2023-05-29T07:41:19;5.27;;;4.37;;
291;SDS011;23311;48.776;9.162;2023-05-29T07:43:47;5.43;;;4.30;;
291;SDS011;23311;48.776;9.162;2023-05-29T07:46:18;5.30;;;4.53;;
291;SDS011;23311;48.776;9.162;2023-05-29T07:48:48;5.77;;;4.00;;
291;SDS011;23311;48.776;9.162;2023-05-29T07:51:16;4.97;;;4.70;;
291;SDS011;23311;48.776;9.162;2023-05-29T07:53:44;5.90;;;3.83;;
291;SDS011;23311;48.776;9.162;2023-05-29T07:56:13;6.13;;;4.20;;
291;SDS011;23311;48.776;9.162;2023-05-29T07:58:43;5.77;;;4.17;;
291;SDS011;23311;48.776;9.162;2023-05-29T08:01:11;5.00;;;3.80;;
291;SDS011;23311;48.776;9.162;2023-05-29T08:03:41;5.27;;;4.20;;
291;SDS011;23311;48.776;9.162;2023-05-29T08:06:11;6.80;;;4.40;;
291;SDS011;23311;48.776;9.162;2023-05-29T08:08:41;6.53;;;4.03;;
291;SDS011;23311;48.776;9.162;2023-05-29T08:11:10;6.00;;;3.90;;
291;SDS011;23311;48.776;9.162;2023-05-29T08:13:38;5.63;;;4.87;;
291;SDS011;23311;48.776;9.162;2023-05-29T08:16:06;6.03;;;4.23;;
291;SDS011;23311;48.776;9.162;2023-05-29T08:18:35;7.40;;;4.87;;
291;SDS011;23311;48.776;9.162;2023-05-29T08:21:03;6.27;;;4.80;;
291;SDS011;23311;48.776;9.162;2023-05-29T08:23:35;4.47;;;4.10;;
291;SDS011;23311;48.776;9.162;2023-05-29T08:26:03;6.43;;;5.10;;
291;SDS011;23311;48.776;9.162;2023-05-29T08:28:31;5.03;;;4.07;;
291;SDS011;23311;48.776;9.162;2023-05-29T08:30:59;5.93;;;4.80;;
291;SDS011;23311;48.776;9.162;2023-05-29T08:33:27;6.20;;;4.70;;
291;SDS011;23311;48.776;9.162;2023-05-29T08:35:56;5.63;;;4.90;;
291;SDS011;23311;48.776;9.162;2023-05-29T08:38:26;5.77;;;4.60;;
291;SDS011;23311;48.776;9.162;2023-05-29T08:40:55;5.30;;;4.57;;
291;SDS011;23311;48.776;9.162;2023-05-29T08:43:24;6.90;;;5.27;;
291;SDS011;23311;48.776;9.162;2023-05-29T08:45:58;5.97;;;4.83;;
291;SDS011;23311;48.776;9.162;2023-05-29T08:48:29;4.63;;;4.23;;
291;SDS011;23311;48.776;9.162;2023-05-29T08:50:58;5.73;;;4.67;;
291;SDS011;23311;48.776;9.162;2023-05-29T08:53:29;4.87;;;4.50;;
291;SDS011;23311;48.776;9.162;2023-05-29T08:56:00;5.67;;;4.37;;
291;SDS011;23311;48.776;9.162;2023-05-29T08:58:29;5.30;;;4.70;;
291;SDS011;23311;48.776;9.162;2023-05-29T09:00:58;6.33;;;4.77;;
291;SDS011;23311;48.776;9.162;2023-05-29T09:03:27;5.40;;;4.13;;
291;SDS011;23311;48.776;9.162;2023-05-29T09:05:57;6.87;;;5.47;;
291;SDS011;23311;48.776;9.162;2023-05-29T09:08:26;5.93;;;4.50;;
291;SDS011;23311;48.776;9.162;2023-05-29T09:10:55;5.37;;;4.20;;
291;SDS011;23311;48.776;9.162;2023-05-29T09:13:25;5.70;;;4.90;;
291;SDS011;23311;48.776;9.162;2023-05-29T09:15:56;6.00;;;5.03;;
291;SDS011;23311;48.776;9.162;2023-05-29T09:18:28;5.17;;;4.87;;
291;SDS011;23311;48.776;9.162;2023-05-29T09:20:57;5.87;;;4.37;;
291;SDS011;23311;48.776;9.162;2023-05-29T09:23:28;7.30;;;4.43;;
291;SDS011;23311;48.776;9.162;2023-05-29T09:25:56;5.43;;;5.13;;
291;SDS011;23311;48.776;9.162;2023-05-29T09:28:26;6.60;;;5.03;;
291;SDS011;23311;48.776;9.162;2023-05-29T09:30:57;5.50;;;4.10;;
291;SDS011;23311;48.776;9.162;2023-05-29T09:33:26;6.70;;;4.57;;
291;SDS011;23311;48.776;9.162;2023-05-29T09:35:54;6.50;;;4.63;;
291;SDS011;23311;48.776;9.162;2023-05-29T09:38:23;5.70;;;4.23;;
291;SDS011;23311;48.776;9.162;2023-05-29T09:41:11;5.50;;;4.60;;
291;SDS011;23311;48.776;9.162;2023-05-29T09:43:41;4.83;;;4.27;;
291;SDS011;23311;48.776;9.162;2023-05-29T09:46:14;7.03;;;4.27;;
291;SDS011;23311;48.776;9.162;2023-05-29T09:48:43;7.37;;;4.67;;
291;SDS011;23311;48.776;9.162;2023-05-29T09:51:19;7.33;;;4.67;;
291;SDS011;23311;48.776;9.162;2023-05-29T09:53:48;6.00;;;4.70;;
291;SDS011;23311;48.776;9.162;2023-05-29T09:56:17;4.40;;;4.10;;
291;SDS011;23311;48.776;9.162;2023-05-29T09:58:49;5.90;;;4.50;;
291;SDS011;23311;48.776;9.162;2023-05-29T10:01:21;7.77;;;4.20;;
291;SDS011;23311;48.776;9.162;2023-05-29T10:03:50;5.23;;;4.07;;
291;SDS011;23311;48.776;9.162;2023-05-29T10:06:18;5.70;;;4.47;;
291;SDS011;23311;48.776;9.162;2023-05-29T10:08:48;6.07;;;5.20;;
291;SDS011;23311;48.776;9.162;2023-05-29T10:11:20;6.90;;;4.30;;
291;SDS011;23311;48.776;9.162;2023-05-29T10:13:52;5.97;;;4.60;;
291;SDS011;23311;48.776;9.162;2023-05-29T10:16:23;6.67;;;4.00;;
291;SDS011;23311;48.776;9.162;2023-05-29T10:18:53;4.57;;;3.87;;
291;SDS011;23311;48.776;9.162;2023-05-29T10:21:23;6.00;;;4.63;;
291;SDS011;23311;48.776;9.162;2023-05-29T10:23:54;4.17;;;3.90;;
291;SDS011;23311;48.776;9.162;2023-05-29T10:26:24;5.30;;;4.17;;
291;SDS011;23311;48.776;9.162;2023-05-29T10:28:56;6.83;;;4.47;;
291;SDS011;23311;48.776;9.162;2023-05-29T10:31:32;7.80;;;3.97;;
291;SDS011;23311;48.776;9.162;2023-05-29T10:34:09;7.20;;;4.77;;
291;SDS011;23311;48.776;9.162;2023-05-29T10:36:49;6.20;;;3.87;;
291;SDS011;23311;48.776;9.162;2023-05-29T10:39:22;7.20;;;4.53;;
291;SDS011;23311;48.776;9.162;2023-05-29T10:41:51;6.03;;;4.30;;
291;SDS011;23311;48.776;9.162;2023-05-29T10:47:17;5.87;;;4.33;;
291;SDS011;23311;48.776;9.162;2023-05-29T10:49:50;4.20;;;3.70;;
291;SDS011;23311;48.776;9.162;2023-05-29T10:52:19;5.47;;;3.47;;
291;SDS011;23311;48.776;9.162;2023-05-29T10:54:50;5.50;;;4.37;;
291;SDS011;23311;48.776;9.162;2023-05-29T10:57:21;5.63;;;4.40;;
291;SDS011;23311;48.776;9.162;2023-05-29T11:00:01;4.50;;;3.93;;
291;SDS011;23311;48.776;9.162;2023-05-29T11:02:40;5.40;;;3.63;;
291;SDS011;23311;48.776;9.162;2023-05-29T11:05:19;6.97;;;3.87;;
291;SDS011;23311;48.776;9.162;2023-05-29T11:07:58;3.90;;;3.63;;
291;SDS011;23311;48.776;9.162;2023-05-29T11:10:41;5.40;;;3.87;;
291;SDS011;23311;48.776;9.162;2023-05-29T11:13:24;4.43;;;3.53;;
291;SDS011;23311;48.776;9.162;2023-05-29T11:19:03;6.30;;;3.63;;
291;SDS011;23311;48.776;9.162;2023-05-29T11:21:33;5.47;;;4.00;;
291;SDS011;23311;48.776;9.162;2023-05-29T11:24:06;5.10;;;4.20;;
291;SDS011;23311;48.776;9.162;2023-05-29T11:26:37;5.37;;;3.97;;
291;SDS011;23311;48.776;9.162;2023-05-29T11:29:05;5.33;;;3.83;;
291;SDS011;23311;48.776;9.162;2023-05-29T11:31:39;5.20;;;3.83;;
291;SDS011;23311;48.776;9.162;2023-05-29T11:34:09;4.53;;;3.60;;
291;SDS011;23311;48.776;9.162;2023-05-29T11:36:41;4.33;;;3.40;;
291;SDS011;23311;48.776;9.162;2023-05-29T11:39:09;4.37;;;3.77;;
291;SDS011;23311;48.776;9.162;2023-05-29T11:41:37;4.90;;;3.70;;
291;SDS011;23311;48.776;9.162;2023-05-29T11:44:06;4.63;;;3.40;;
291;SDS011;23311;48.776;9.162;2023-05-29T11:46:35;4.87;;;3.43;;
291;SDS011;23311;48.776;9.162;2023-05-29T11:49:04;4.33;;;3.17;;
291;SDS011;23311;48.776;9.162;2023-05-29T11:51:32;5.30;;;3.60;;
291;SDS011;23311;48.776;9.162;2023-05-29T11:54:01;4.80;;;3.70;;
291;SDS011;23311;48.776;9.162;2023-05-29T11:56:29;6.80;;;3.97;;
291;SDS011;23311;48.776;9.162;2023-05-29T11:58:58;4.20;;;3.90;;
291;SDS011;23311;48.776;9.162;2023-05-29T12:01:27;4.40;;;3.60;;
291;SDS011;23311;48.776;9.162;2023-05-29T12:03:55;7.03;;;3.93;;
291;SDS011;23311;48.776;9.162;2023-05-29T12:06:34;5.83;;;3.80;;
291;SDS011;23311;48.776;9.162;2023-05-29T12:09:05;4.37;;;3.17;;
291;SDS011;23311;48.776;9.162;2023-05-29T12:11:33;4.07;;;3.20;;
291;SDS011;23311;48.776;9.162;2023-05-29T12:14:02;4.13;;;3.33;;
291;SDS011;23311;48.776;9.162;2023-05-29T12:16:30;4.50;;;3.80;;
291;SDS011;23311;48.776;9.162;2023-05-29T12:19:01;8.43;;;3.93;;
291;SDS011;23311;48.776;9.162;2023-05-29T12:21:29;3.90;;;3.63;;
291;SDS011;23311;48.776;9.162;2023-05-29T12:23:59;4.10;;;3.20;;
291;SDS011;23311;48.776;9.162;2023-05-29T12:26:41;4.60;;;4.03;;
291;SDS011;23311;48.776;9.162;2023-05-29T12:29:12;3.70;;;3.03;;
291;SDS011;23311;48.776;9.162;2023-05-29T12:31:41;4.80;;;3.63;;
291;SDS011;23311;48.776;9.162;2023-05-29T12:34:10;4.50;;;3.10;;
291;SDS011;23311;48.776;9.162;2023-05-29T12:36:40;3.60;;;3.20;;
291;SDS011;23311;48.776;9.162;2023-05-29T12:39:10;3.77;;;3.57;;
291;SDS011;23311;48.776;9.162;2023-05-29T12:41:39;3.90;;;3.40;;
291;SDS011;23311;48.776;9.162;2023-05-29T12:44:07;4.17;;;3.50;;
291;SDS011;23311;48.776;9.162;2023-05-29T12:46:36;3.30;;;2.73;;
291;SDS011;23311;48.776;9.162;2023-05-29T12:49:12;4.20;;;2.97;;
291;SDS011;23311;48.776;9.162;2023-05-29T12:51:41;4.77;;;3.30;;
291;SDS011;23311;48.776;9.162;2023-05-29T12:54:11;4.30;;;3.50;;
291;SDS011;23311;48.776;9.162;2023-05-29T12:56:40;4.77;;;2.70;;
291;SDS011;23311;48.776;9.162;2023-05-29T12:59:09;4.87;;;3.30;;
291;SDS011;23311;48.776;9.162;2023-05-29T13:01:37;7.20;;;3.50;;
291;SDS011;23311;48.776;9.162;2023-05-29T13:04:07;4.00;;;2.73;;
291;SDS011;23311;48.776;9.162;2023-05-29T13:06:37;3.40;;;3.20;;
291;SDS011;23311;48.776;9.162;2023-05-29T13:09:05;4.60;;;3.40;;
291;SDS011;23311;48.776;9.162;2023-05-29T13:11:36;3.43;;;2.90;;
291;SDS011;23311;48.776;9.162;2023-05-29T13:14:04;4.00;;;3.00;;
291;SDS011;23311;48.776;9.162;2023-05-29T13:16:32;5.20;;;3.90;;
291;SDS011;23311;48.776;9.162;2023-05-29T13:19:02;5.53;;;3.70;;
291;SDS011;23311;48.776;9.162;2023-05-29T13:21:30;4.50;;;3.10;;
291;SDS011;23311;48.776;9.162;2023-05-29T13:23:58;5.73;;;3.20;;
291;SDS011;23311;48.776;9.162;2023-05-29T13:26:27;4.27;;;3.03;;
291;SDS011;23311;48.776;9.162;2023-05-29T13:28:56;3.63;;;3.03;;
291;SDS011;23311;48.776;9.162;2023-05-29T13:31:24;4.47;;;3.00;;
291;SDS011;23311;48.776;9.162;2023-05-29T13:33:53;4.50;;;3.17;;
291;SDS011;23311;48.776;9.162;2023-05-29T13:36:21;3.40;;;3.20;;
291;SDS011;23311;48.776;9.162;2023-05-29T13:38:49;7.80;;;3.83;;
291;SDS011;23311;48.776;9.162;2023-05-29T13:41:17;4.97;;;3.33;;
291;SDS011;23311;48.776;9.162;2023-05-29T13:43:46;3.90;;;3.20;;
291;SDS011;23311;48.776;9.162;2023-05-29T13:46:16;3.30;;;2.97;;
291;SDS011;23311;48.776;9.162;2023-05-29T13:48:44;4.57;;;3.30;;
291;SDS011;23311;48.776;9.162;2023-05-29T13:51:12;4.07;;;3.67;;
291;SDS011;23311;48.776;9.162;2023-05-29T13:53:40;4.50;;;3.03;;
291;SDS011;23311;48.776;9.162;2023-05-29T13:56:08;3.77;;;3.60;;
291;SDS011;23311;48.776;9.162;2023-05-29T13:58:37;3.60;;;3.10;;
291;SDS011;23311;48.776;9.162;2023-05-29T14:01:05;3.43;;;2.83;;
291;SDS011;23311;48.776;9.162;2023-05-29T14:03:34;4.00;;;3.50;;
291;SDS011;23311;48.776;9.162;2023-05-29T14:06:02;7.10;;;3.90;;
291;SDS011;23311;48.776;9.162;2023-05-29T14:08:32;5.13;;;3.10;;
291;SDS011;23311;48.776;9.162;2023-05-29T14:11:00;4.30;;;3.00;;
291;SDS011;23311;48.776;9.162;2023-05-29T14:13:28;4.80;;;3.47;;
291;SDS011;23311;48.776;9.162;2023-05-29T14:15:56;3.20;;;3.07;;
291;SDS011;23311;48.776;9.162;2023-05-29T14:18:25;3.50;;;3.33;;
291;SDS011;23311;48.776;9.162;2023-05-29T14:20:54;5.30;;;3.40;;
291;SDS011;23311;48.776;9.162;2023-05-29T14:23:22;4.23;;;3.40;;
291;SDS011;23311;48.776;9.162;2023-05-29T14:25:51;2.80;;;2.60;;
291;SDS011;23311;48.776;9.162;2023-05-29T14:28:19;4.10;;;3.40;;
291;SDS011;23311;48.776;9.162;2023-05-29T14:30:47;3.80;;;3.63;;
291;SDS011;23311;48.776;9.162;2023-05-29T14:33:15;4.00;;;3.80;;
291;SDS011;23311;48.776;9.162;2023-05-29T14:35:44;3.40;;;3.27;;
291;SDS011;23311;48.776;9.162;2023-05-29T14:38:13;3.57;;;3.00;;
291;SDS011;23311;48.776;9.162;2023-05-29T14:40:41;5.10;;;3.80;;
291;SDS011;23311;48.776;9.162;2023-05-29T14:43:17;5.50;;;3.20;;
291;SDS011;23311;48.776;9.162;2023-05-29T14:45:45;5.20;;;3.17;;
291;SDS011;23311;48.776;9.162;2023-05-29T14:48:13;6.40;;;3.70;;
291;SDS011;23311;48.776;9.162;2023-05-29T14:50:42;4.27;;;3.37;;
291;SDS011;23311;48.776;9.162;2023-05-29T14:53:10;3.63;;;3.50;;
291;SDS011;23311;48.776;9.162;2023-05-29T14:55:40;4.00;;;3.40;;
291;SDS011;23311;48.776;9.162;2023-05-29T14:58:08;3.40;;;3.20;;
291;SDS011;23311;48.776;9.162;2023-05-29T15:00:39;4.10;;;3.13;;
291;SDS011;23311;48.776;9.162;2023-05-29T15:03:07;4.20;;;3.63;;
291;SDS011;23311;48.776;9.162;2023-05-29T15:05:35;5.93;;;3.50;;
291;SDS011;23311;48.776;9.162;2023-05-29T15:08:03;3.77;;;2.90;;
291;SDS011;23311;48.776;9.162;2023-05-29T15:10:32;3.70;;;3.50;;
291;SDS011;23311;48.776;9.162;2023-05-29T15:13:01;4.00;;;3.00;;
291;SDS011;23311;48.776;9.162;2023-05-29T15:15:30;4.93;;;3.57;;
291;SDS011;23311;48.776;9.162;2023-05-29T15:18:13;3.60;;;3.03;;
291;SDS011;23311;48.776;9.162;2023-05-29T15:20:41;4.00;;;3.07;;
291;SDS011;23311;48.776;9.162;2023-05-29T15:23:09;4.77;;;3.10;;
291;SDS011;23311;48.776;9.162;2023-05-29T15:25:37;4.63;;;3.30;;
291;SDS011;23311;48.776;9.162;2023-05-29T15:28:06;3.70;;;3.20;;
291;SDS011;23311;48.776;9.162;2023-05-29T15:30:35;3.50;;;3.10;;
291;SDS011;23311;48.776;9.162;2023-05-29T15:33:03;4.40;;;2.83;;
291;SDS011;23311;48.776;9.162;2023-05-29T15:35:36;3.70;;;3.10;;